Terminal Aerodrome Forecast
Issued by NWS Bismarck, ND

Home | Current Version | Previous Version | Text Only | Print | Product List | Glossary On
Versions: 1 2 3 4 5 6 7 8 9 10 11 12 13
141
FTUS43 KBIS 010521
TAFISN
TAF
KISN 010521Z 0106/0206 02004KT P6SM SKC
     FM011600 30004KT P6SM SKC
     FM020200 24004KT P6SM SCT070=

USA.gov is the U.S. government's official web portal to all federal, state and local government web resources and services.